Time;durP1;ratioP1;P1;durP2;ratioP2;P2;SDS_P1;SDS_P2;PMS_P1;PMS_P2;Temp;Humidity;BMP_temperature;BMP_pressure;BME280_temperature;BME280_humidity;BME280_pressure;Samples;Min_cycle;Max_cycle;Signal;HPM_P1;HPM_P2
2021/07/25 00:00:34;;;;;;;28.40;11.08;;;;;;;16.28;100.00;100947.89;1723282;82;21484;-39
2021/07/25 00:03:00;;;;;;;24.92;10.70;;;;;;;16.29;100.00;100949.59;1749685;81;21052;-38
2021/07/25 00:05:27;;;;;;;50.67;10.60;;;;;;;16.28;100.00;100944.44;1749917;81;20897;-39
2021/07/25 00:07:54;;;;;;;30.05;10.00;;;;;;;16.30;100.00;100946.11;1749777;82;20921;-40
2021/07/25 00:10:21;;;;;;;35.23;11.48;;;;;;;16.34;100.00;100949.45;1749765;82;20959;-39
2021/07/25 00:12:47;;;;;;;34.18;9.80;;;;;;;16.36;100.00;100951.55;1749807;82;20943;-39
2021/07/25 00:15:14;;;;;;;25.40;9.88;;;;;;;16.34;100.00;100950.31;1749996;81;21093;-39
2021/07/25 00:17:40;;;;;;;36.83;11.40;;;;;;;16.32;100.00;100949.95;1749718;82;20878;-40
2021/07/25 00:20:09;;;;;;;41.18;10.88;;;;;;;16.27;100.00;100948.80;1750225;81;20853;-40
2021/07/25 00:22:35;;;;;;;35.92;9.85;;;;;;;16.24;100.00;100948.91;1750520;82;20972;-39
2021/07/25 00:25:09;;;;;;;29.42;9.45;;;;;;;16.21;100.00;100945.97;1750820;82;20968;-39
2021/07/25 00:27:40;;;;;;;29.42;9.08;;;;;;;16.21;100.00;100950.32;1724397;82;22312;-40
2021/07/25 00:30:10;;;;;;;30.32;10.25;;;;;;;16.19;100.00;100946.91;1750358;82;21580;-39
2021/07/25 00:32:38;;;;;;;23.35;10.10;;;;;;;16.13;100.00;100944.05;1722321;82;21415;-40
2021/07/25 00:35:05;;;;;;;33.55;10.20;;;;;;;16.07;100.00;100951.66;1749855;82;20964;-40
2021/07/25 00:37:31;;;;;;;16.55;9.50;;;;;;;16.04;100.00;100946.98;1750225;82;20988;-39
2021/07/25 00:39:58;;;;;;;20.90;8.98;;;;;;;16.01;100.00;100953.15;1749800;82;21726;-39
2021/07/25 00:42:24;;;;;;;26.87;9.80;;;;;;;15.98;100.00;100951.95;1749962;81;20991;-40
2021/07/25 00:44:51;;;;;;;32.05;9.55;;;;;;;15.92;100.00;100950.85;1749904;80;20937;-38
2021/07/25 00:47:17;;;;;;;26.30;10.08;;;;;;;15.89;100.00;100949.19;1750153;80;20975;-37
2021/07/25 00:49:44;;;;;;;24.37;10.50;;;;;;;15.84;100.00;100949.77;1749873;82;20999;-37
2021/07/25 00:52:11;;;;;;;30.25;10.98;;;;;;;15.76;100.00;100944.78;1722436;82;21176;-39
2021/07/25 00:54:37;;;;;;;24.60;10.45;;;;;;;15.71;100.00;100948.00;1749977;82;21825;-39
2021/07/25 00:57:04;;;;;;;32.78;9.83;;;;;;;15.65;100.00;100954.27;1722414;82;21095;-39
2021/07/25 00:59:31;;;;;;;25.35;10.20;;;;;;;15.61;100.00;100954.43;1722138;82;21003;-38
2021/07/25 01:01:57;;;;;;;27.75;10.58;;;;;;;15.56;100.00;100953.26;1749966;82;20893;-38
2021/07/25 01:04:51;;;;;;;22.50;10.55;;;;;;;15.51;100.00;100949.48;1749876;82;21138;-39
2021/07/25 01:07:31;;;;;;;21.17;10.48;;;;;;;15.49;100.00;100954.36;1749871;82;21017;-38
2021/07/25 01:10:08;;;;;;;28.12;10.08;;;;;;;15.42;100.00;100958.07;1750120;82;21383;-38
2021/07/25 01:13:11;;;;;;;18.77;10.95;;;;;;;15.34;100.00;100963.05;1748884;82;20949;-39
2021/07/25 01:15:37;;;;;;;35.38;11.48;;;;;;;15.33;100.00;100961.81;1749944;82;20961;-38
2021/07/25 01:18:04;;;;;;;31.37;10.90;;;;;;;15.30;100.00;100958.83;1722861;82;21150;-39
2021/07/25 01:20:31;;;;;;;30.23;10.20;;;;;;;15.26;100.00;100955.91;1749849;82;21495;-39
2021/07/25 01:22:58;;;;;;;16.82;9.88;;;;;;;15.22;100.00;100960.83;1749978;82;20964;-39
2021/07/25 01:25:25;;;;;;;17.30;10.00;;;;;;;15.16;100.00;100958.41;1722391;82;21057;-39
2021/07/25 01:28:23;;;;;;;25.55;10.35;;;;;;;15.08;100.00;100962.07;1749780;82;21057;-40
2021/07/25 01:30:56;;;;;;;27.70;10.75;;;;;;;15.06;100.00;100963.88;1723694;82;21814;-39
2021/07/25 01:33:31;;;;;;;17.82;9.68;;;;;;;15.04;100.00;100964.84;1744783;82;21525;-39
2021/07/25 01:35:58;;;;;;;15.73;10.20;;;;;;;15.01;100.00;100971.41;1750260;82;20991;-40
2021/07/25 01:38:25;;;;;;;19.80;9.88;;;;;;;15.00;100.00;100968.40;1749844;82;20960;-38
2021/07/25 01:41:10;;;;;;;23.80;9.95;;;;;;;15.00;100.00;100972.31;1749871;82;20900;-39
2021/07/25 01:43:40;;;;;;;15.35;9.55;;;;;;;14.97;100.00;100977.19;1749738;82;21076;-38
2021/07/25 01:46:07;;;;;;;14.38;10.03;;;;;;;14.96;100.00;100978.08;1749603;82;21058;-38
2021/07/25 01:48:33;;;;;;;24.77;11.38;;;;;;;14.93;100.00;100973.80;1749798;82;21454;-38
2021/07/25 01:51:00;;;;;;;18.12;10.03;;;;;;;14.91;100.00;100979.97;1750140;82;21544;-39
2021/07/25 01:53:26;;;;;;;17.92;10.23;;;;;;;14.93;100.00;100979.48;1749912;82;20940;-39
2021/07/25 01:55:53;;;;;;;28.85;11.83;;;;;;;14.97;100.00;100985.00;1749850;82;21048;-39
2021/07/25 01:58:19;;;;;;;18.70;10.35;;;;;;;14.96;100.00;100979.82;1749852;82;20928;-39
2021/07/25 02:00:46;;;;;;;19.98;10.50;;;;;;;14.94;100.00;100978.58;1749874;82;20928;-40
2021/07/25 02:03:14;;;;;;;21.25;10.60;;;;;;;14.92;100.00;100978.61;1749805;82;20928;-39
2021/07/25 02:05:40;;;;;;;16.82;10.28;;;;;;;14.93;100.00;100980.78;1722823;82;20908;-38
2021/07/25 02:08:07;;;;;;;16.23;10.05;;;;;;;14.92;100.00;100973.86;1749940;82;21193;-38
2021/07/25 02:10:34;;;;;;;20.05;11.12;;;;;;;14.93;100.00;100975.09;1749732;81;21624;-40
2021/07/25 02:13:02;;;;;;;18.40;10.15;;;;;;;14.93;100.00;100976.41;1749873;82;21557;-40
2021/07/25 02:15:29;;;;;;;22.90;10.63;;;;;;;14.91;100.00;100976.90;1749880;82;20968;-40
2021/07/25 02:17:55;;;;;;;17.05;9.80;;;;;;;14.93;100.00;100981.62;1749899;82;20874;-40
2021/07/25 02:20:23;;;;;;;18.45;9.95;;;;;;;14.99;100.00;100979.30;1746105;81;21922;-38
2021/07/25 02:22:49;;;;;;;21.50;9.93;;;;;;;15.04;100.00;100976.56;1735872;82;20901;-38
2021/07/25 02:25:16;;;;;;;17.92;9.55;;;;;;;15.07;100.00;100990.81;1735905;81;21482;-39
2021/07/25 02:27:42;;;;;;;21.50;9.78;;;;;;;15.13;100.00;100989.76;1736002;82;21376;-39
2021/07/25 02:30:10;;;;;;;13.38;9.68;;;;;;;15.17;100.00;100990.94;1735960;82;21489;-39
2021/07/25 02:32:37;;;;;;;28.32;10.55;;;;;;;15.22;100.00;100992.95;1715045;82;21783;-39
2021/07/25 02:35:05;;;;;;;22.45;9.80;;;;;;;15.27;100.00;100991.95;1735806;82;21560;-40
2021/07/25 02:37:31;;;;;;;21.27;10.28;;;;;;;15.26;100.00;100991.12;1735806;82;21032;-40
2021/07/25 02:39:58;;;;;;;21.02;10.25;;;;;;;15.28;100.00;100993.66;1736169;82;20980;-39
2021/07/25 02:42:24;;;;;;;32.13;10.40;;;;;;;15.25;100.00;100996.37;1736027;82;20901;-40
2021/07/25 02:44:52;;;;;;;27.35;10.72;;;;;;;15.22;100.00;101004.69;1735745;82;20925;-39
2021/07/25 02:47:19;;;;;;;21.33;10.00;;;;;;;15.22;100.00;101002.55;1735848;82;21148;-39
2021/07/25 02:49:45;;;;;;;23.45;10.00;;;;;;;15.23;100.00;101004.25;1735599;81;21535;-39
2021/07/25 02:52:12;;;;;;;29.95;11.60;;;;;;;15.26;100.00;101005.90;1735686;82;20968;-38
2021/07/25 02:54:38;;;;;;;32.40;11.03;;;;;;;15.29;100.00;101001.92;1735859;82;21404;-39
2021/07/25 02:57:06;;;;;;;24.92;11.53;;;;;;;15.32;100.00;101010.49;1735946;82;21795;-39
2021/07/25 02:59:33;;;;;;;27.52;11.55;;;;;;;15.34;100.00;101009.16;1735693;81;20914;-39
2021/07/25 03:01:59;;;;;;;24.02;10.25;;;;;;;15.38;100.00;101006.86;1735854;82;20952;-39
2021/07/25 03:04:26;;;;;;;21.45;11.20;;;;;;;15.42;100.00;101006.33;1735821;82;20885;-39
2021/07/25 03:06:52;;;;;;;32.58;10.75;;;;;;;15.45;100.00;101010.98;1736205;82;20981;-38
2021/07/25 03:09:19;;;;;;;31.95;10.78;;;;;;;15.49;100.00;101006.07;1735851;82;21774;-38
2021/07/25 03:11:46;;;;;;;25.23;10.78;;;;;;;15.56;100.00;101008.52;1735744;82;20968;-39
2021/07/25 03:14:13;;;;;;;30.92;11.30;;;;;;;15.61;100.00;101009.22;1735855;82;21346;-39
2021/07/25 03:16:39;;;;;;;24.80;10.72;;;;;;;15.66;100.00;101009.92;1735939;82;21456;-38
2021/07/25 03:19:07;;;;;;;30.10;11.57;;;;;;;15.76;100.00;101015.72;1735883;82;21439;-38
2021/07/25 03:21:33;;;;;;;29.70;10.93;;;;;;;15.87;100.00;101013.61;1744604;80;21033;-38
2021/07/25 03:24:01;;;;;;;36.23;12.65;;;;;;;15.96;100.00;101012.50;1749776;82;20924;-38
2021/07/25 03:26:27;;;;;;;28.05;12.25;;;;;;;16.06;100.00;101019.59;1749767;82;20873;-38
2021/07/25 03:28:54;;;;;;;25.82;11.15;;;;;;;16.15;100.00;101021.05;1749633;82;21560;-38
2021/07/25 03:31:20;;;;;;;33.18;12.00;;;;;;;16.23;100.00;101020.33;1749892;82;20912;-39
2021/07/25 03:33:47;;;;;;;22.80;11.25;;;;;;;16.32;100.00;101019.17;1749914;82;21119;-39
2021/07/25 03:36:13;;;;;;;35.73;11.38;;;;;;;16.41;100.00;101024.08;1749875;82;20960;-39
2021/07/25 03:38:41;;;;;;;22.75;10.63;;;;;;;16.52;100.00;101028.50;1749978;82;20972;-38
2021/07/25 03:41:07;;;;;;;20.68;10.98;;;;;;;16.62;100.00;101032.97;1749601;82;20921;-39
2021/07/25 03:43:34;;;;;;;25.77;11.80;;;;;;;16.73;100.00;101039.56;1749908;82;20880;-40
2021/07/25 03:46:02;;;;;;;19.82;10.85;;;;;;;16.84;100.00;101042.67;1749835;82;21136;-39
2021/07/25 03:48:29;;;;;;;29.48;12.15;;;;;;;16.95;100.00;101040.52;1749859;82;21552;-40
2021/07/25 03:50:56;;;;;;;22.70;10.78;;;;;;;17.07;100.00;101048.88;1749859;82;21482;-39
2021/07/25 03:53:22;;;;;;;19.45;10.53;;;;;;;17.18;100.00;101051.09;1722027;82;21475;-40
2021/07/25 03:55:49;;;;;;;24.30;10.90;;;;;;;17.25;100.00;101047.34;1750117;82;21447;-39
2021/07/25 03:58:15;;;;;;;19.50;11.55;;;;;;;17.35;100.00;101054.39;1749951;82;21749;-39
2021/07/25 04:00:41;;;;;;;21.25;11.55;;;;;;;17.46;100.00;101052.21;1749690;82;21461;-41
2021/07/25 04:03:08;;;;;;;20.52;10.75;;;;;;;17.63;100.00;101044.18;1750025;82;20889;-39
2021/07/25 04:05:34;;;;;;;17.70;10.75;;;;;;;17.88;100.00;101048.45;1750001;82;20948;-39
2021/07/25 04:08:11;;;;;;;22.73;10.68;;;;;;;18.17;99.33;101046.45;1749943;82;20940;-39
2021/07/25 04:10:41;;;;;;;14.20;9.65;;;;;;;18.46;97.73;101045.69;1749878;82;21101;-39
2021/07/25 04:13:09;;;;;;;19.23;10.32;;;;;;;18.76;96.52;101043.98;1749849;82;20924;-39
2021/07/25 04:15:40;;;;;;;25.70;10.82;;;;;;;19.05;95.13;101048.42;1749756;81;20893;-39
2021/07/25 04:18:07;;;;;;;19.52;9.93;;;;;;;19.34;92.49;101052.84;1750106;82;20877;-39
2021/07/25 04:20:34;;;;;;;13.95;9.35;;;;;;;19.59;90.57;101051.70;1748827;82;20925;-40
2021/07/25 04:23:04;;;;;;;25.17;10.28;;;;;;;19.84;88.37;101053.16;1736009;82;21117;-40
2021/07/25 04:25:31;;;;;;;22.67;10.53;;;;;;;20.05;85.45;101054.75;1735905;82;20929;-39
2021/07/25 04:28:00;;;;;;;20.65;10.72;;;;;;;20.23;83.05;101051.70;1735779;82;20937;-39
2021/07/25 04:30:28;;;;;;;18.80;9.53;;;;;;;20.42;82.06;101049.92;1735731;82;21499;-39
2021/07/25 04:32:57;;;;;;;21.87;8.78;;;;;;;20.65;80.75;101058.80;1735910;82;21019;-39
2021/07/25 04:35:25;;;;;;;22.37;8.18;;;;;;;20.89;79.08;101058.49;1714869;82;21090;-39
2021/07/25 04:37:54;;;;;;;21.70;8.50;;;;;;;21.07;77.52;101055.80;1735886;82;20882;-38
2021/07/25 04:40:24;;;;;;;13.20;8.13;;;;;;;21.27;76.40;101061.78;1715375;82;20977;-39
2021/07/25 04:42:53;;;;;;;13.62;8.43;;;;;;;21.52;75.78;101062.62;1735768;82;20901;-39
2021/07/25 04:45:51;;;;;;;15.88;8.35;;;;;;;21.80;75.43;101060.63;1736001;82;20933;-39
2021/07/25 04:48:30;;;;;;;15.58;8.63;;;;;;;22.06;74.21;101060.09;1739591;81;21163;-39
2021/07/25 04:51:03;;;;;;;18.07;8.45;;;;;;;22.32;73.27;101057.73;1735876;81;20945;-39
2021/07/25 04:53:37;;;;;;;13.85;8.45;;;;;;;22.57;72.60;101052.35;1714798;82;20933;-39
2021/07/25 04:56:07;;;;;;;15.43;7.85;;;;;;;22.65;71.13;101050.09;1736172;82;20984;-39
2021/07/25 04:58:50;;;;;;;10.58;8.20;;;;;;;22.81;70.44;101051.33;1735828;82;20913;-39
2021/07/25 05:01:21;;;;;;;18.90;7.67;;;;;;;23.05;69.52;101056.05;1735820;82;21150;-39
2021/07/25 05:03:49;;;;;;;13.88;7.58;;;;;;;23.35;67.06;101055.09;1735756;81;20921;-38
2021/07/25 05:06:17;;;;;;;20.02;7.97;;;;;;;23.64;65.39;101057.70;1735892;82;20925;-38
2021/07/25 05:08:45;;;;;;;12.93;7.05;;;;;;;23.90;64.92;101054.67;1735882;82;20969;-39
2021/07/25 05:11:24;;;;;;;12.60;6.90;;;;;;;24.17;64.81;101052.99;1735872;82;21021;-39
2021/07/25 05:13:54;;;;;;;18.17;7.70;;;;;;;24.35;64.47;101053.05;1735919;82;21130;-40
2021/07/25 05:16:27;;;;;;;9.55;6.65;;;;;;;24.38;62.45;101054.20;1735926;82;20977;-39
2021/07/25 05:19:27;;;;;;;18.95;6.67;;;;;;;24.43;62.67;101054.36;1714974;82;20917;-39
2021/07/25 05:22:22;;;;;;;10.20;6.50;;;;;;;24.60;61.58;101059.81;1719526;82;20933;-38
2021/07/25 05:24:48;;;;;;;15.70;6.83;;;;;;;24.79;60.02;101058.95;1715092;82;20944;-39
2021/07/25 05:27:20;;;;;;;16.57;6.80;;;;;;;24.98;59.50;101063.44;1711591;82;21054;-39
2021/07/25 05:29:48;;;;;;;21.68;7.25;;;;;;;25.24;58.36;101066.41;1735825;82;20980;-39
2021/07/25 05:32:15;;;;;;;14.53;7.12;;;;;;;25.45;57.99;101068.48;1735836;82;21008;-39
2021/07/25 05:34:42;;;;;;;22.60;6.90;;;;;;;25.60;58.07;101065.23;1735843;82;20849;-39
2021/07/25 05:37:09;;;;;;;13.13;7.00;;;;;;;25.76;58.64;101067.60;1736029;82;21577;-38
2021/07/25 05:39:35;;;;;;;19.32;6.70;;;;;;;25.87;58.04;101066.81;1715162;82;21230;-38
2021/07/25 05:42:02;;;;;;;17.35;7.10;;;;;;;25.98;57.12;101063.36;1735738;81;21059;-39
2021/07/25 05:44:31;;;;;;;11.33;6.75;;;;;;;26.19;56.70;101062.76;1735879;82;21427;-38
2021/07/25 05:46:59;;;;;;;10.72;7.17;;;;;;;26.43;55.96;101063.19;1735846;82;20949;-39
2021/07/25 05:49:26;;;;;;;19.57;6.95;;;;;;;26.68;55.22;101062.12;1735933;82;20933;-39
2021/07/25 05:51:52;;;;;;;11.05;6.70;;;;;;;26.85;53.49;101066.14;1735776;82;21132;-39
2021/07/25 05:54:19;;;;;;;9.65;5.87;;;;;;;26.77;54.43;101064.05;1735760;82;21025;-40
2021/07/25 05:56:45;;;;;;;17.37;6.62;;;;;;;26.70;54.41;101065.50;1736149;82;20949;-39
2021/07/25 05:59:12;;;;;;;19.85;6.65;;;;;;;26.62;55.19;101066.09;1735924;82;20913;-39
2021/07/25 06:01:40;;;;;;;8.68;7.12;;;;;;;26.44;55.51;101062.22;1736212;82;20913;-39
2021/07/25 06:04:07;;;;;;;19.60;7.10;;;;;;;26.50;56.63;101060.41;1739618;81;21140;-39
2021/07/25 06:06:34;;;;;;;15.78;6.75;;;;;;;26.60;55.01;101064.03;1735760;81;20964;-39
2021/07/25 06:09:03;;;;;;;14.07;6.08;;;;;;;26.63;54.65;101059.81;1735875;82;20886;-39
2021/07/25 06:11:30;;;;;;;21.07;6.67;;;;;;;26.62;54.19;101065.27;1735828;82;20941;-39
2021/07/25 06:13:57;;;;;;;12.33;6.05;;;;;;;26.66;54.32;101066.23;1735885;82;20937;-39
2021/07/25 06:16:25;;;;;;;19.70;6.22;;;;;;;26.62;53.61;101070.07;1727429;82;20961;-39
2021/07/25 06:18:53;;;;;;;21.23;6.37;;;;;;;26.62;54.37;101063.94;1720027;82;20905;-40
2021/07/25 06:21:19;;;;;;;12.55;6.35;;;;;;;26.78;53.44;101067.56;1735523;81;21468;-39
2021/07/25 06:23:47;;;;;;;17.45;7.08;;;;;;;26.95;54.09;101067.13;1706339;82;21004;-38
2021/07/25 06:26:14;;;;;;;16.60;7.08;;;;;;;26.95;53.11;101067.13;1706526;84;20933;-39
2021/07/25 06:28:41;;;;;;;26.80;7.70;;;;;;;26.81;53.06;101067.32;1706414;83;21118;-38
2021/07/25 06:31:08;;;;;;;29.92;7.37;;;;;;;26.88;53.56;101069.88;1723132;81;21003;-40
2021/07/25 06:33:34;;;;;;;14.03;6.47;;;;;;;27.01;53.08;101069.77;1735818;82;20980;-38
2021/07/25 06:36:01;;;;;;;21.33;6.20;;;;;;;27.08;52.59;101069.66;1735024;82;21420;-38
2021/07/25 06:38:27;;;;;;;12.73;5.67;;;;;;;27.21;52.45;101069.53;1709051;82;21502;-38
2021/07/25 06:40:55;;;;;;;15.10;6.20;;;;;;;27.32;51.14;101064.69;1733615;82;21423;-39
2021/07/25 06:43:22;;;;;;;14.18;6.20;;;;;;;27.37;50.39;101070.47;1735575;82;20889;-40
2021/07/25 06:45:50;;;;;;;15.38;5.78;;;;;;;27.30;52.05;101071.94;1734939;82;20976;-40
2021/07/25 06:48:24;;;;;;;13.48;5.78;;;;;;;27.12;53.56;101078.22;1735736;82;20929;-39
2021/07/25 06:50:53;;;;;;;10.98;5.62;;;;;;;27.10;52.01;101081.48;1735653;82;20929;-39
2021/07/25 06:53:20;;;;;;;15.90;5.83;;;;;;;27.02;52.88;101078.59;1735630;82;21905;-40
2021/07/25 06:55:52;;;;;;;14.25;5.30;;;;;;;26.94;52.54;101082.70;1735466;82;20985;-39
2021/07/25 06:58:19;;;;;;;12.75;5.22;;;;;;;26.93;53.36;101085.47;1735693;82;21007;-39
2021/07/25 07:00:45;;;;;;;14.75;5.53;;;;;;;26.89;53.32;101082.19;1733501;82;20977;-39
2021/07/25 07:03:13;;;;;;;19.10;6.05;;;;;;;26.87;52.43;101080.14;1735889;82;21380;-39
2021/07/25 07:05:40;;;;;;;18.57;5.70;;;;;;;26.86;52.79;101088.25;1735752;82;21075;-40
2021/07/25 07:08:07;;;;;;;17.00;5.78;;;;;;;27.00;53.14;101088.49;1735929;82;20885;-40
2021/07/25 07:10:38;;;;;;;14.50;5.47;;;;;;;27.24;53.35;101091.87;1721724;82;20972;-39
2021/07/25 07:13:09;;;;;;;26.40;5.75;;;;;;;27.47;51.84;101089.19;1706415;83;21024;-39
2021/07/25 07:15:42;;;;;;;13.90;5.47;;;;;;;27.72;51.90;101088.55;1706540;83;20925;-39
2021/07/25 07:18:08;;;;;;;18.37;5.28;;;;;;;27.87;50.90;101090.91;1686098;84;21081;-39
2021/07/25 07:20:35;;;;;;;16.48;5.08;;;;;;;27.91;50.45;101089.20;1708200;82;21036;-39
2021/07/25 07:23:04;;;;;;;18.02;5.22;;;;;;;28.13;48.32;101094.08;1706367;83;20905;-40
2021/07/25 07:25:39;;;;;;;14.73;5.20;;;;;;;28.31;49.98;101093.05;1706514;84;20890;-40
2021/07/25 07:28:06;;;;;;;21.35;5.00;;;;;;;28.34;48.52;101090.13;1682772;83;20925;-41
2021/07/25 07:30:33;;;;;;;41.73;5.80;;;;;;;28.26;48.29;101089.94;1723664;82;21102;-39
2021/07/25 07:33:14;;;;;;;25.27;5.10;;;;;;;28.29;47.35;101089.67;1712510;82;21455;-39
2021/07/25 07:35:41;;;;;;;24.20;5.72;;;;;;;28.45;47.30;101085.22;1713022;82;21526;-40
2021/07/25 07:38:09;;;;;;;24.07;4.70;;;;;;;28.78;45.62;101091.80;1706581;83;20889;-39
2021/07/25 07:40:37;;;;;;;14.07;5.12;;;;;;;29.01;45.56;101088.48;1706295;83;21565;-39
2021/07/25 07:43:06;;;;;;;13.95;5.05;;;;;;;29.14;45.95;101091.42;1706882;84;21128;-40
2021/07/25 07:45:35;;;;;;;11.68;4.50;;;;;;;29.12;44.26;101090.20;1706510;84;20901;-39
2021/07/25 07:48:01;;;;;;;12.33;4.30;;;;;;;29.16;45.74;101086.29;1706888;84;20866;-40
2021/07/25 07:50:28;;;;;;;10.20;3.77;;;;;;;29.36;45.82;101093.02;1706522;83;20976;-40
2021/07/25 07:52:54;;;;;;;13.08;4.20;;;;;;;29.39;43.87;101080.74;1706820;82;20929;-39
2021/07/25 07:55:21;;;;;;;15.30;4.70;;;;;;;29.44;45.27;101073.71;1706720;82;21187;-39
2021/07/25 07:57:47;;;;;;;11.45;4.72;;;;;;;29.57;43.52;101082.78;1706618;83;21481;-39
2021/07/25 08:00:14;;;;;;;17.37;3.95;;;;;;;29.78;41.79;101087.52;1672525;85;20892;-39
2021/07/25 08:02:42;;;;;;;14.43;4.95;;;;;;;30.01;41.76;101073.94;1639683;86;21000;-39
2021/07/25 08:05:10;;;;;;;15.48;4.50;;;;;;;30.27;42.78;101074.67;1655459;86;21036;-40
2021/07/25 08:07:37;;;;;;;20.30;4.60;;;;;;;30.55;43.14;101081.43;1655486;86;21821;-40
2021/07/25 08:10:06;;;;;;;16.73;3.90;;;;;;;30.77;39.77;101079.43;1655360;86;21523;-40
2021/07/25 08:12:32;;;;;;;16.65;4.80;;;;;;;30.91;38.63;101079.45;1636517;86;20973;-40
2021/07/25 08:14:58;;;;;;;22.20;4.70;;;;;;;31.05;38.15;101073.59;1655415;85;20972;-39
2021/07/25 08:17:25;;;;;;;12.07;3.87;;;;;;;31.18;38.50;101081.27;1655576;86;21107;-39
2021/07/25 08:19:52;;;;;;;24.15;4.37;;;;;;;31.36;38.57;101088.53;1672616;85;21891;-40
2021/07/25 08:22:18;;;;;;;26.23;4.30;;;;;;;31.42;38.53;101083.08;1673241;85;21536;-40
2021/07/25 08:24:45;;;;;;;15.03;4.30;;;;;;;31.34;37.19;101094.52;1677527;83;21583;-40
2021/07/25 08:27:11;;;;;;;17.37;4.35;;;;;;;31.27;38.11;101089.44;1701093;83;21065;-40
2021/07/25 08:29:38;;;;;;;45.60;5.53;;;;;;;31.43;39.35;101084.77;1687302;83;20962;-39
2021/07/25 08:32:06;;;;;;;21.68;4.60;;;;;;;31.48;39.66;101087.34;1692921;84;22080;-39
2021/07/25 08:34:33;;;;;;;20.05;4.50;;;;;;;31.60;38.61;101087.11;1692703;84;21561;-40
2021/07/25 08:37:02;;;;;;;15.95;4.53;;;;;;;31.76;37.63;101081.07;1663559;84;20959;-38
2021/07/25 08:39:29;;;;;;;9.65;3.83;;;;;;;31.70;36.21;101073.66;1692662;83;20935;-39
2021/07/25 08:42:12;;;;;;;16.30;4.17;;;;;;;31.74;35.30;101082.58;1691952;83;20892;-39
2021/07/25 08:44:53;;;;;;;49.73;4.67;;;;;;;31.79;36.52;101082.98;1692815;84;21148;-40
2021/07/25 08:47:36;;;;;;;17.92;4.55;;;;;;;32.08;38.17;101087.24;1721810;83;20944;-40
2021/07/25 08:50:14;;;;;;;17.62;4.50;;;;;;;32.19;37.53;101087.49;1692696;84;20998;-40
2021/07/25 08:52:46;;;;;;;18.37;4.53;;;;;;;32.40;36.67;101080.98;1693423;84;20974;-41
2021/07/25 08:55:17;;;;;;;7.83;3.70;;;;;;;32.75;35.80;101080.50;1703966;84;21403;-41
2021/07/25 08:57:47;;;;;;;17.75;4.30;;;;;;;33.05;35.62;101076.16;1695733;84;21026;-39
2021/07/25 09:00:19;;;;;;;11.08;4.15;;;;;;;33.31;33.95;101080.59;1703508;82;20924;-39
2021/07/25 09:02:50;;;;;;;20.80;4.50;;;;;;;33.53;34.36;101077.81;1688539;83;21110;-39
2021/07/25 09:05:18;;;;;;;18.20;4.83;;;;;;;33.61;34.25;101081.02;1692643;84;20959;-40
2021/07/25 09:07:48;;;;;;;17.80;4.12;;;;;;;33.50;35.50;101079.48;1692863;84;20903;-40
2021/07/25 09:10:19;;;;;;;11.95;4.08;;;;;;;33.48;34.33;101081.50;1692625;83;21117;-40
2021/07/25 09:12:47;;;;;;;7.97;3.40;;;;;;;33.57;33.89;101079.16;1666219;84;20975;-40
2021/07/25 09:15:24;;;;;;;11.18;3.95;;;;;;;33.62;33.75;101079.52;1666685;84;20955;-40
2021/07/25 09:17:51;;;;;;;9.25;4.15;;;;;;;33.60;32.01;101075.31;1692720;84;21042;-40
2021/07/25 09:20:33;;;;;;;31.37;4.78;;;;;;;33.60;32.84;101072.62;1666889;84;21011;-40
2021/07/25 09:23:04;;;;;;;17.73;4.37;;;;;;;33.78;33.87;101078.69;1634748;86;21287;-39
2021/07/25 09:25:37;;;;;;;20.12;4.12;;;;;;;34.00;33.90;101079.55;1681697;85;20900;-40
2021/07/25 09:28:12;;;;;;;10.35;3.65;;;;;;;33.96;31.71;101080.39;1674566;85;20917;-40
2021/07/25 09:30:38;;;;;;;12.65;3.60;;;;;;;33.96;31.79;101077.70;1676286;84;20932;-39
2021/07/25 09:33:27;;;;;;;13.48;4.17;;;;;;;33.86;30.71;101069.81;1703056;84;20904;-40
2021/07/25 09:36:16;;;;;;;6.60;3.67;;;;;;;33.65;32.83;101079.19;1703269;84;21139;-39
2021/07/25 09:38:45;;;;;;;16.40;4.10;;;;;;;33.71;33.26;101079.00;1702233;84;20908;-40
2021/07/25 09:41:21;;;;;;;16.75;3.52;;;;;;;33.95;31.67;101081.36;1695975;84;21011;-40
2021/07/25 09:43:59;;;;;;;18.80;4.47;;;;;;;33.91;31.50;101074.66;1647617;85;21027;-40
2021/07/25 09:46:26;;;;;;;24.87;5.22;;;;;;;33.86;33.19;101080.55;1673886;85;20999;-40
2021/07/25 09:48:57;;;;;;;12.28;4.15;;;;;;;33.94;30.63;101083.22;1674763;85;21132;-40
2021/07/25 09:51:23;;;;;;;7.60;4.30;;;;;;;34.22;30.99;101076.67;1682760;84;20932;-40
2021/07/25 09:53:52;;;;;;;9.08;3.75;;;;;;;34.32;32.08;101076.00;1688547;84;21067;-40
2021/07/25 09:56:23;;;;;;;9.45;3.58;;;;;;;34.41;30.74;101070.12;1690007;84;21573;-41
2021/07/25 09:58:50;;;;;;;12.30;4.08;;;;;;;34.61;31.09;101068.39;1674550;85;21456;-40
2021/07/25 10:01:42;;;;;;;9.43;3.40;;;;;;;34.44;30.52;101073.80;1674550;85;21501;-40
2021/07/25 10:04:20;;;;;;;11.75;3.20;;;;;;;34.17;30.72;101073.66;1647644;85;20988;-40
2021/07/25 10:06:53;;;;;;;12.65;3.60;;;;;;;34.31;31.25;101083.73;1693529;84;20956;-41
2021/07/25 10:09:21;;;;;;;13.65;3.75;;;;;;;34.54;30.44;101072.30;1700024;83;20999;-40
2021/07/25 10:11:59;;;;;;;8.75;3.77;;;;;;;34.52;30.25;101072.98;1703155;84;21438;-39
2021/07/25 10:14:29;;;;;;;5.67;3.42;;;;;;;34.51;28.41;101072.13;1682936;84;21062;-40
2021/07/25 10:16:56;;;;;;;10.78;3.40;;;;;;;34.18;31.89;101072.66;1695553;84;21599;-40
2021/07/25 10:19:43;;;;;;;5.37;3.62;;;;;;;34.09;31.37;101070.48;1686737;84;20948;-39
2021/07/25 10:22:10;;;;;;;12.40;3.60;;;;;;;34.17;29.82;101067.81;1673929;85;20936;-39
2021/07/25 10:24:39;;;;;;;13.32;3.45;;;;;;;34.47;29.64;101072.11;1687661;85;20926;-38
2021/07/25 10:27:05;;;;;;;6.35;3.20;;;;;;;34.71;31.22;101069.55;1692632;84;21826;-40
2021/07/25 10:29:31;;;;;;;10.65;3.50;;;;;;;34.90;30.41;101072.34;1694392;83;21058;-40
2021/07/25 10:31:58;;;;;;;19.65;3.50;;;;;;;35.01;29.41;101062.56;1692673;84;20903;-41
2021/07/25 10:34:24;;;;;;;12.00;3.47;;;;;;;35.14;27.70;101074.09;1692708;84;20951;-40
2021/07/25 10:36:51;;;;;;;10.95;3.95;;;;;;;34.76;28.48;101063.98;1691835;84;21550;-40
2021/07/25 10:39:21;;;;;;;15.60;4.12;;;;;;;34.57;31.11;101078.67;1693247;84;21992;-41
2021/07/25 10:41:49;;;;;;;12.03;3.77;;;;;;;34.45;29.70;101073.28;1692741;84;20950;-39
2021/07/25 10:44:16;;;;;;;12.75;4.10;;;;;;;34.27;29.44;101071.66;1666584;84;20936;-39
2021/07/25 10:46:43;;;;;;;10.85;3.52;;;;;;;34.04;31.35;101075.03;1721546;83;20990;-40
2021/07/25 10:49:17;;;;;;;39.13;5.40;;;;;;;33.99;29.66;101072.02;1692303;84;20994;-41
2021/07/25 10:51:57;;;;;;;;;;;;;;;34.07;30.56;101067.98;1695170;84;20960;-40
2021/07/25 10:54:27;;;;;;;15.23;4.35;;;;;;;34.19;31.01;101072.98;1719340;83;20077;-41
2021/07/25 10:57:04;;;;;;;15.50;4.40;;;;;;;34.37;30.10;101062.89;1721558;83;20959;-40
2021/07/25 10:59:47;;;;;;;7.47;5.28;;;;;;;34.43;31.40;101073.47;1692815;84;20923;-40
2021/07/25 11:02:29;;;;;;;16.85;10.78;;;;;;;34.53;31.27;101076.00;1692666;83;21065;-40
2021/07/25 11:05:00;;;;;;;12.78;4.78;;;;;;;34.80;29.00;101072.55;1663378;86;21983;-39
2021/07/25 11:07:33;;;;;;;4.08;3.42;;;;;;;34.95;29.53;101063.25;1664600;86;20995;-41
2021/07/25 11:10:09;;;;;;;9.40;3.72;;;;;;;35.00;28.04;101061.39;1665463;84;20951;-40
2021/07/25 11:12:56;;;;;;;9.60;3.67;;;;;;;34.89;29.13;101062.61;1665042;86;20979;-40
2021/07/25 11:15:31;;;;;;;24.30;3.85;;;;;;;34.86;30.89;101062.93;1692703;84;20943;-40
2021/07/25 11:18:11;;;;;;;;;;;;;;;34.80;27.96;101065.31;1696317;83;21780;-41
2021/07/25 11:20:55;;;;;;;12.43;4.23;;;;;;;34.65;29.27;101064.37;1686215;83;20422;-40
2021/07/25 11:23:33;;;;;;;26.75;4.42;;;;;;;34.76;27.97;101059.13;1679439;84;20951;-40